sensor_id;sensor_type;location;lat;lon;timestamp;pressure;altitude;pressure_sealevel;temperature;humidity
63006;BME280;53704;52.532;6.426;2022-07-15T00:02:12;102171.09;;;11.42;88.03
63006;BME280;53704;52.532;6.426;2022-07-15T00:04:38;102175.41;;;11.23;88.85
63006;BME280;53704;52.532;6.426;2022-07-15T00:07:04;102167.66;;;11.40;87.52
63006;BME280;53704;52.532;6.426;2022-07-15T00:09:30;102164.94;;;11.81;84.94
63006;BME280;53704;52.532;6.426;2022-07-15T00:12:14;102169.25;;;11.52;86.50
63006;BME280;53704;52.532;6.426;2022-07-15T00:14:39;102157.66;;;11.71;84.41
63006;BME280;53704;52.532;6.426;2022-07-15T00:17:06;102156.06;;;11.59;85.64
63006;BME280;53704;52.532;6.426;2022-07-15T00:19:33;102154.97;;;11.81;84.10
63006;BME280;53704;52.532;6.426;2022-07-15T00:21:59;102158.19;;;11.55;85.26
63006;BME280;53704;52.532;6.426;2022-07-15T00:24:24;102165.69;;;11.42;86.23
63006;BME280;53704;52.532;6.426;2022-07-15T00:26:50;102159.63;;;11.50;86.25
63006;BME280;53704;52.532;6.426;2022-07-15T00:29:16;102151.72;;;11.68;84.71
63006;BME280;53704;52.532;6.426;2022-07-15T00:31:41;102152.72;;;11.76;84.00
63006;BME280;53704;52.532;6.426;2022-07-15T00:34:06;102153.25;;;11.61;84.94
63006;BME280;53704;52.532;6.426;2022-07-15T00:36:32;102152.69;;;11.67;84.34
63006;BME280;53704;52.532;6.426;2022-07-15T00:38:57;102155.19;;;11.39;86.54
63006;BME280;53704;52.532;6.426;2022-07-15T00:41:23;102159.13;;;11.35;86.44
63006;BME280;53704;52.532;6.426;2022-07-15T00:43:48;102158.25;;;11.25;86.37
63006;BME280;53704;52.532;6.426;2022-07-15T00:46:21;102141.88;;;11.47;85.13
63006;BME280;53704;52.532;6.426;2022-07-15T00:48:46;102154.63;;;11.35;87.03
63006;BME280;53704;52.532;6.426;2022-07-15T00:51:12;102158.28;;;11.34;86.28
63006;BME280;53704;52.532;6.426;2022-07-15T00:53:38;102151.19;;;11.33;86.78
63006;BME280;53704;52.532;6.426;2022-07-15T00:56:07;102153.53;;;11.17;86.82
63006;BME280;53704;52.532;6.426;2022-07-15T00:58:37;102144.41;;;11.08;88.87
63006;BME280;53704;52.532;6.426;2022-07-15T01:01:03;102143.44;;;11.09;88.80
63006;BME280;53704;52.532;6.426;2022-07-15T01:03:31;102149.50;;;11.01;87.53
63006;BME280;53704;52.532;6.426;2022-07-15T01:05:58;102155.81;;;10.91;88.76
63006;BME280;53704;52.532;6.426;2022-07-15T01:08:24;102147.69;;;10.81;90.40
63006;BME280;53704;52.532;6.426;2022-07-15T01:10:50;102149.56;;;10.90;90.42
63006;BME280;53704;52.532;6.426;2022-07-15T01:13:17;102149.09;;;11.06;90.08
63006;BME280;53704;52.532;6.426;2022-07-15T01:15:44;102151.91;;;11.04;89.64
63006;BME280;53704;52.532;6.426;2022-07-15T01:18:10;102145.16;;;11.10;89.19
63006;BME280;53704;52.532;6.426;2022-07-15T01:20:40;102151.59;;;10.98;90.78
63006;BME280;53704;52.532;6.426;2022-07-15T01:23:05;102154.38;;;11.17;90.41
63006;BME280;53704;52.532;6.426;2022-07-15T01:25:31;102158.50;;;11.12;90.21
63006;BME280;53704;52.532;6.426;2022-07-15T01:27:56;102158.34;;;11.13;90.89
63006;BME280;53704;52.532;6.426;2022-07-15T01:30:22;102157.44;;;11.34;89.31
63006;BME280;53704;52.532;6.426;2022-07-15T01:32:47;102159.28;;;11.43;89.23
63006;BME280;53704;52.532;6.426;2022-07-15T01:35:13;102163.03;;;11.52;88.07
63006;BME280;53704;52.532;6.426;2022-07-15T01:37:38;102166.84;;;11.49;87.58
63006;BME280;53704;52.532;6.426;2022-07-15T01:40:05;102167.09;;;11.46;89.08
63006;BME280;53704;52.532;6.426;2022-07-15T01:42:32;102163.56;;;11.46;89.52
63006;BME280;53704;52.532;6.426;2022-07-15T01:44:57;102165.09;;;11.38;89.48
63006;BME280;53704;52.532;6.426;2022-07-15T01:47:23;102163.72;;;11.44;90.37
63006;BME280;53704;52.532;6.426;2022-07-15T01:49:48;102158.78;;;11.59;89.29
63006;BME280;53704;52.532;6.426;2022-07-15T01:52:14;102155.72;;;11.73;88.20
63006;BME280;53704;52.532;6.426;2022-07-15T01:54:39;102156.53;;;11.64;87.97
63006;BME280;53704;52.532;6.426;2022-07-15T01:57:05;102150.31;;;11.83;87.13
63006;BME280;53704;52.532;6.426;2022-07-15T01:59:30;102158.97;;;11.87;86.71
63006;BME280;53704;52.532;6.426;2022-07-15T02:01:56;102151.81;;;12.07;85.50
63006;BME280;53704;52.532;6.426;2022-07-15T02:04:23;102147.66;;;12.03;85.26
63006;BME280;53704;52.532;6.426;2022-07-15T02:06:49;102157.63;;;11.92;88.14
63006;BME280;53704;52.532;6.426;2022-07-15T02:09:15;102161.72;;;11.97;87.69
63006;BME280;53704;52.532;6.426;2022-07-15T02:11:41;102158.31;;;11.94;89.31
63006;BME280;53704;52.532;6.426;2022-07-15T02:14:06;102158.19;;;12.06;88.12
63006;BME280;53704;52.532;6.426;2022-07-15T02:16:33;102155.06;;;12.10;87.40
63006;BME280;53704;52.532;6.426;2022-07-15T02:18:59;102158.31;;;11.94;87.60
63006;BME280;53704;52.532;6.426;2022-07-15T02:21:25;102154.56;;;11.86;86.85
63006;BME280;53704;52.532;6.426;2022-07-15T02:23:52;102157.19;;;11.97;86.08
63006;BME280;53704;52.532;6.426;2022-07-15T02:26:18;102151.38;;;12.21;86.03
63006;BME280;53704;52.532;6.426;2022-07-15T02:28:43;102153.06;;;12.03;85.80
63006;BME280;53704;52.532;6.426;2022-07-15T02:31:09;102153.72;;;11.85;85.77
63006;BME280;53704;52.532;6.426;2022-07-15T02:33:34;102157.06;;;11.99;87.24
63006;BME280;53704;52.532;6.426;2022-07-15T02:36:00;102155.34;;;11.98;87.52
63006;BME280;53704;52.532;6.426;2022-07-15T02:38:26;102167.53;;;12.02;87.65
63006;BME280;53704;52.532;6.426;2022-07-15T02:40:51;102154.38;;;12.08;85.81
63006;BME280;53704;52.532;6.426;2022-07-15T02:43:17;102155.91;;;12.11;84.47
63006;BME280;53704;52.532;6.426;2022-07-15T02:45:42;102148.69;;;12.11;86.47
63006;BME280;53704;52.532;6.426;2022-07-15T02:48:08;102150.34;;;12.22;86.25
63006;BME280;53704;52.532;6.426;2022-07-15T02:50:35;102147.97;;;12.19;85.94
63006;BME280;53704;52.532;6.426;2022-07-15T02:53:01;102155.22;;;12.38;85.79
63006;BME280;53704;52.532;6.426;2022-07-15T02:55:28;102156.50;;;12.15;85.67
63006;BME280;53704;52.532;6.426;2022-07-15T02:57:54;102159.16;;;12.44;85.11
63006;BME280;53704;52.532;6.426;2022-07-15T03:00:19;102168.69;;;12.58;84.58
63006;BME280;53704;52.532;6.426;2022-07-15T03:02:46;102163.28;;;12.58;84.86
63006;BME280;53704;52.532;6.426;2022-07-15T03:05:12;102167.53;;;12.51;85.23
63006;BME280;53704;52.532;6.426;2022-07-15T03:07:38;102174.09;;;12.48;85.75
63006;BME280;53704;52.532;6.426;2022-07-15T03:10:05;102168.69;;;12.28;87.12
63006;BME280;53704;52.532;6.426;2022-07-15T03:12:31;102170.25;;;12.60;85.36
63006;BME280;53704;52.532;6.426;2022-07-15T03:14:57;102181.34;;;12.57;85.73
63006;BME280;53704;52.532;6.426;2022-07-15T03:17:23;102184.19;;;12.65;84.17
63006;BME280;53704;52.532;6.426;2022-07-15T03:19:49;102186.31;;;12.52;85.47
63006;BME280;53704;52.532;6.426;2022-07-15T03:22:14;102181.47;;;12.46;85.51
63006;BME280;53704;52.532;6.426;2022-07-15T03:24:40;102181.75;;;12.62;84.30
63006;BME280;53704;52.532;6.426;2022-07-15T03:27:05;102186.47;;;12.41;84.67
63006;BME280;53704;52.532;6.426;2022-07-15T03:29:31;102188.00;;;12.14;85.47
63006;BME280;53704;52.532;6.426;2022-07-15T03:31:57;102184.34;;;12.25;85.66
63006;BME280;53704;52.532;6.426;2022-07-15T03:34:23;102193.69;;;12.01;86.86
63006;BME280;53704;52.532;6.426;2022-07-15T03:36:52;102189.19;;;12.21;85.68
63006;BME280;53704;52.532;6.426;2022-07-15T03:39:18;102187.03;;;12.25;85.34
63006;BME280;53704;52.532;6.426;2022-07-15T03:41:44;102195.69;;;11.99;86.50
63006;BME280;53704;52.532;6.426;2022-07-15T03:44:09;102199.31;;;11.88;87.06
63006;BME280;53704;52.532;6.426;2022-07-15T03:46:35;102199.78;;;12.03;86.40
63006;BME280;53704;52.532;6.426;2022-07-15T03:49:01;102207.06;;;12.12;87.06
63006;BME280;53704;52.532;6.426;2022-07-15T03:51:27;102203.91;;;11.98;87.08
63006;BME280;53704;52.532;6.426;2022-07-15T03:53:59;102206.19;;;11.92;87.43
63006;BME280;53704;52.532;6.426;2022-07-15T03:56:26;102213.38;;;11.82;88.20
63006;BME280;53704;52.532;6.426;2022-07-15T03:58:52;102206.72;;;11.86;87.40
63006;BME280;53704;52.532;6.426;2022-07-15T04:01:17;102215.78;;;11.85;87.35
63006;BME280;53704;52.532;6.426;2022-07-15T04:03:43;102219.59;;;11.83;87.92
63006;BME280;53704;52.532;6.426;2022-07-15T04:06:08;102221.31;;;11.74;87.10
63006;BME280;53704;52.532;6.426;2022-07-15T04:08:33;102223.72;;;11.77;88.16
63006;BME280;53704;52.532;6.426;2022-07-15T04:10:59;102211.19;;;12.07;86.55
63006;BME280;53704;52.532;6.426;2022-07-15T04:13:24;102220.81;;;12.09;86.78
63006;BME280;53704;52.532;6.426;2022-07-15T04:15:50;102223.47;;;11.90;87.37
63006;BME280;53704;52.532;6.426;2022-07-15T04:18:15;102231.19;;;11.94;87.67
63006;BME280;53704;52.532;6.426;2022-07-15T04:20:41;102223.84;;;12.16;86.27
63006;BME280;53704;52.532;6.426;2022-07-15T04:23:07;102231.34;;;12.03;86.38
63006;BME280;53704;52.532;6.426;2022-07-15T04:25:33;102235.06;;;12.21;85.58
63006;BME280;53704;52.532;6.426;2022-07-15T04:27:58;102230.09;;;12.17;85.46
63006;BME280;53704;52.532;6.426;2022-07-15T04:30:24;102235.75;;;11.94;86.70
63006;BME280;53704;52.532;6.426;2022-07-15T04:32:49;102234.88;;;12.03;87.29
63006;BME280;53704;52.532;6.426;2022-07-15T04:35:16;102233.75;;;12.06;86.91
63006;BME280;53704;52.532;6.426;2022-07-15T04:37:41;102236.34;;;12.17;86.62
63006;BME280;53704;52.532;6.426;2022-07-15T04:40:07;102245.44;;;12.16;86.78
63006;BME280;53704;52.532;6.426;2022-07-15T04:42:33;102249.56;;;12.20;86.52
63006;BME280;53704;52.532;6.426;2022-07-15T04:44:58;102246.16;;;12.18;86.83
63006;BME280;53704;52.532;6.426;2022-07-15T04:47:24;102245.44;;;12.16;86.83
63006;BME280;53704;52.532;6.426;2022-07-15T04:49:49;102244.00;;;12.22;87.01
63006;BME280;53704;52.532;6.426;2022-07-15T04:52:33;102247.41;;;12.14;86.74
63006;BME280;53704;52.532;6.426;2022-07-15T04:54:59;102255.63;;;12.03;88.00
63006;BME280;53704;52.532;6.426;2022-07-15T04:57:24;102250.09;;;12.14;87.07
63006;BME280;53704;52.532;6.426;2022-07-15T04:59:49;102254.94;;;12.20;87.43
63006;BME280;53704;52.532;6.426;2022-07-15T05:02:16;102256.09;;;12.18;88.22
63006;BME280;53704;52.532;6.426;2022-07-15T05:04:41;102254.13;;;12.39;86.21
63006;BME280;53704;52.532;6.426;2022-07-15T05:07:08;102252.56;;;12.37;86.16
63006;BME280;53704;52.532;6.426;2022-07-15T05:09:33;102254.25;;;12.38;86.51
63006;BME280;53704;52.532;6.426;2022-07-15T05:11:59;102250.56;;;12.29;86.95
63006;BME280;53704;52.532;6.426;2022-07-15T05:14:25;102259.38;;;12.41;85.71
63006;BME280;53704;52.532;6.426;2022-07-15T05:16:51;102259.09;;;12.44;86.00
63006;BME280;53704;52.532;6.426;2022-07-15T05:19:16;102253.28;;;12.48;86.93
63006;BME280;53704;52.532;6.426;2022-07-15T05:21:42;102251.28;;;12.41;85.47
63006;BME280;53704;52.532;6.426;2022-07-15T05:24:07;102255.41;;;12.55;86.18
63006;BME280;53704;52.532;6.426;2022-07-15T05:26:33;102251.28;;;12.51;86.17
63006;BME280;53704;52.532;6.426;2022-07-15T05:28:59;102255.69;;;12.61;86.90
63006;BME280;53704;52.532;6.426;2022-07-15T05:31:24;102254.84;;;12.71;85.05
63006;BME280;53704;52.532;6.426;2022-07-15T05:33:49;102256.56;;;12.62;85.69
63006;BME280;53704;52.532;6.426;2022-07-15T05:36:15;102261.97;;;12.72;86.73
63006;BME280;53704;52.532;6.426;2022-07-15T05:38:41;102256.56;;;12.72;86.29
63006;BME280;53704;52.532;6.426;2022-07-15T05:41:08;102253.72;;;12.73;86.42
63006;BME280;53704;52.532;6.426;2022-07-15T05:43:34;102256.53;;;12.91;85.07
63006;BME280;53704;52.532;6.426;2022-07-15T05:46:00;102253.84;;;12.81;86.45
63006;BME280;53704;52.532;6.426;2022-07-15T05:48:25;102259.34;;;12.99;85.41
63006;BME280;53704;52.532;6.426;2022-07-15T05:50:51;102250.31;;;12.81;84.72
63006;BME280;53704;52.532;6.426;2022-07-15T05:53:16;102257.66;;;12.98;83.33
63006;BME280;53704;52.532;6.426;2022-07-15T05:55:42;102263.31;;;13.15;82.92
63006;BME280;53704;52.532;6.426;2022-07-15T05:58:08;102263.75;;;13.10;81.86
63006;BME280;53704;52.532;6.426;2022-07-15T06:00:34;102260.63;;;13.15;80.84
63006;BME280;53704;52.532;6.426;2022-07-15T06:03:00;102259.03;;;13.22;81.34
63006;BME280;53704;52.532;6.426;2022-07-15T06:05:27;102259.00;;;13.32;80.08
63006;BME280;53704;52.532;6.426;2022-07-15T06:07:53;102262.00;;;13.29;80.65
63006;BME280;53704;52.532;6.426;2022-07-15T06:10:19;102269.72;;;13.33;80.25
63006;BME280;53704;52.532;6.426;2022-07-15T06:12:44;102266.72;;;13.36;78.38
63006;BME280;53704;52.532;6.426;2022-07-15T06:15:10;102266.69;;;13.46;79.10
63006;BME280;53704;52.532;6.426;2022-07-15T06:17:35;102266.00;;;13.44;78.86
63006;BME280;53704;52.532;6.426;2022-07-15T06:20:01;102266.34;;;13.59;78.39
63006;BME280;53704;52.532;6.426;2022-07-15T06:22:26;102263.19;;;13.64;78.88
63006;BME280;53704;52.532;6.426;2022-07-15T06:24:52;102267.56;;;13.74;76.94
63006;BME280;53704;52.532;6.426;2022-07-15T06:27:18;102266.97;;;13.81;77.16
63006;BME280;53704;52.532;6.426;2022-07-15T06:29:47;102268.50;;;13.83;76.93
63006;BME280;53704;52.532;6.426;2022-07-15T06:32:12;102262.56;;;13.80;73.53
63006;BME280;53704;52.532;6.426;2022-07-15T06:34:38;102260.03;;;13.96;73.65
63006;BME280;53704;52.532;6.426;2022-07-15T06:37:03;102257.03;;;13.99;75.64
63006;BME280;53704;52.532;6.426;2022-07-15T06:39:31;102261.22;;;14.11;72.77
63006;BME280;53704;52.532;6.426;2022-07-15T06:41:56;102261.78;;;14.15;72.98
63006;BME280;53704;52.532;6.426;2022-07-15T06:44:22;102262.28;;;14.28;71.77
63006;BME280;53704;52.532;6.426;2022-07-15T06:46:47;102264.22;;;14.36;71.27
63006;BME280;53704;52.532;6.426;2022-07-15T06:49:13;102261.88;;;14.41;66.85
63006;BME280;53704;52.532;6.426;2022-07-15T06:51:39;102262.63;;;14.61;66.77
63006;BME280;53704;52.532;6.426;2022-07-15T06:54:04;102254.88;;;14.67;66.32
63006;BME280;53704;52.532;6.426;2022-07-15T06:56:31;102254.41;;;14.71;68.15
63006;BME280;53704;52.532;6.426;2022-07-15T06:58:57;102260.19;;;14.76;68.11
63006;BME280;53704;52.532;6.426;2022-07-15T07:01:22;102259.53;;;14.74;67.82
63006;BME280;53704;52.532;6.426;2022-07-15T07:03:48;102260.72;;;14.98;67.80
63006;BME280;53704;52.532;6.426;2022-07-15T07:06:14;102259.63;;;14.91;67.28
63006;BME280;53704;52.532;6.426;2022-07-15T07:08:39;102256.25;;;14.89;67.52
63006;BME280;53704;52.532;6.426;2022-07-15T07:11:05;102266.34;;;15.05;63.79
63006;BME280;53704;52.532;6.426;2022-07-15T07:13:30;102264.66;;;15.30;64.95
63006;BME280;53704;52.532;6.426;2022-07-15T07:15:55;102271.09;;;15.29;63.04
63006;BME280;53704;52.532;6.426;2022-07-15T07:18:21;102271.53;;;15.42;64.72
63006;BME280;53704;52.532;6.426;2022-07-15T07:20:46;102272.97;;;15.28;62.70
63006;BME280;53704;52.532;6.426;2022-07-15T07:23:11;102281.94;;;15.55;63.48
63006;BME280;53704;52.532;6.426;2022-07-15T07:25:37;102286.72;;;15.61;61.02
63006;BME280;53704;52.532;6.426;2022-07-15T07:28:03;102276.84;;;15.78;60.96
63006;BME280;53704;52.532;6.426;2022-07-15T07:30:32;102284.41;;;15.74;61.55
63006;BME280;53704;52.532;6.426;2022-07-15T07:32:57;102278.59;;;15.96;59.98
63006;BME280;53704;52.532;6.426;2022-07-15T07:35:23;102278.47;;;16.05;60.22
63006;BME280;53704;52.532;6.426;2022-07-15T07:37:49;102272.38;;;16.12;62.06
63006;BME280;53704;52.532;6.426;2022-07-15T07:40:15;102279.72;;;16.19;60.60
63006;BME280;53704;52.532;6.426;2022-07-15T07:42:42;102268.53;;;16.47;58.45
63006;BME280;53704;52.532;6.426;2022-07-15T07:45:08;102273.97;;;16.47;60.36
63006;BME280;53704;52.532;6.426;2022-07-15T07:47:36;102264.13;;;16.54;59.36
63006;BME280;53704;52.532;6.426;2022-07-15T07:50:09;102261.75;;;16.59;57.08
63006;BME280;53704;52.532;6.426;2022-07-15T07:52:34;102269.41;;;16.80;57.07
63006;BME280;53704;52.532;6.426;2022-07-15T07:55:00;102260.25;;;16.98;58.16
63006;BME280;53704;52.532;6.426;2022-07-15T07:57:25;102257.88;;;17.11;57.75
63006;BME280;53704;52.532;6.426;2022-07-15T07:59:51;102266.16;;;17.26;58.88
63006;BME280;53704;52.532;6.426;2022-07-15T08:02:16;102264.50;;;17.09;56.45
63006;BME280;53704;52.532;6.426;2022-07-15T08:04:42;102268.88;;;17.26;58.07
63006;BME280;53704;52.532;6.426;2022-07-15T08:07:07;102261.75;;;17.33;56.08
63006;BME280;53704;52.532;6.426;2022-07-15T08:09:33;102263.91;;;17.46;56.51
63006;BME280;53704;52.532;6.426;2022-07-15T08:11:59;102265.28;;;17.42;55.26
63006;BME280;53704;52.532;6.426;2022-07-15T08:14:24;102267.78;;;17.60;55.88
63006;BME280;53704;52.532;6.426;2022-07-15T08:16:51;102270.03;;;17.96;55.54
63006;BME280;53704;52.532;6.426;2022-07-15T08:19:17;102270.28;;;18.18;53.64
63006;BME280;53704;52.532;6.426;2022-07-15T08:21:44;102279.63;;;18.23;53.43
63006;BME280;53704;52.532;6.426;2022-07-15T08:24:11;102275.19;;;17.91;53.19
63006;BME280;53704;52.532;6.426;2022-07-15T08:26:38;102283.84;;;17.86;53.08
63006;BME280;53704;52.532;6.426;2022-07-15T08:29:04;102274.16;;;18.23;54.17
63006;BME280;53704;52.532;6.426;2022-07-15T08:31:30;102270.38;;;18.01;50.43
63006;BME280;53704;52.532;6.426;2022-07-15T08:33:56;102267.81;;;18.54;51.37
63006;BME280;53704;52.532;6.426;2022-07-15T08:36:21;102272.50;;;18.46;49.11
63006;BME280;53704;52.532;6.426;2022-07-15T08:38:47;102267.53;;;18.49;52.45
63006;BME280;53704;52.532;6.426;2022-07-15T08:41:15;102274.28;;;18.76;51.45
63006;BME280;53704;52.532;6.426;2022-07-15T08:43:40;102271.03;;;19.04;49.69
63006;BME280;53704;52.532;6.426;2022-07-15T08:46:07;102266.75;;;18.87;47.81
63006;BME280;53704;52.532;6.426;2022-07-15T08:48:35;102267.19;;;18.67;46.44
63006;BME280;53704;52.532;6.426;2022-07-15T08:51:04;102260.03;;;19.27;49.66
63006;BME280;53704;52.532;6.426;2022-07-15T08:53:29;102261.47;;;19.53;47.75
63006;BME280;53704;52.532;6.426;2022-07-15T08:55:57;102262.94;;;19.11;47.42
63006;BME280;53704;52.532;6.426;2022-07-15T08:58:22;102266.16;;;19.44;47.29
63006;BME280;53704;52.532;6.426;2022-07-15T09:00:48;102262.78;;;19.72;47.27
63006;BME280;53704;52.532;6.426;2022-07-15T09:03:14;102261.06;;;20.01;48.85
63006;BME280;53704;52.532;6.426;2022-07-15T09:05:41;102257.09;;;20.40;47.15
63006;BME280;53704;52.532;6.426;2022-07-15T09:10:52;102263.63;;;20.60;46.53
63006;BME280;53704;52.532;6.426;2022-07-15T09:13:28;102264.97;;;20.50;44.55
63006;BME280;53704;52.532;6.426;2022-07-15T09:15:57;102261.28;;;20.57;48.18
63006;BME280;53704;52.532;6.426;2022-07-15T09:18:25;102258.50;;;20.36;45.59
63006;BME280;53704;52.532;6.426;2022-07-15T09:20:51;102260.91;;;20.24;47.64
63006;BME280;53704;52.532;6.426;2022-07-15T09:23:21;102259.63;;;20.05;49.16
63006;BME280;53704;52.532;6.426;2022-07-15T09:25:49;102262.31;;;19.53;47.85
63006;BME280;53704;52.532;6.426;2022-07-15T09:28:16;102256.94;;;19.90;48.51
63006;BME280;53704;52.532;6.426;2022-07-15T09:30:44;102258.16;;;19.87;49.14
63006;BME280;53704;52.532;6.426;2022-07-15T09:33:30;102254.13;;;19.83;46.39
63006;BME280;53704;52.532;6.426;2022-07-15T09:36:23;102247.78;;;20.77;46.21
63006;BME280;53704;52.532;6.426;2022-07-15T09:41:32;102233.91;;;21.42;44.91
63006;BME280;53704;52.532;6.426;2022-07-15T09:46:30;102239.44;;;21.14;43.91
63006;BME280;53704;52.532;6.426;2022-07-15T09:49:03;102239.56;;;21.34;41.91
63006;BME280;53704;52.532;6.426;2022-07-15T09:51:29;102241.88;;;21.65;42.08
63006;BME280;53704;52.532;6.426;2022-07-15T09:53:55;102236.75;;;22.04;42.34
63006;BME280;53704;52.532;6.426;2022-07-15T09:56:21;102234.06;;;21.62;44.04
63006;BME280;53704;52.532;6.426;2022-07-15T09:58:48;102230.22;;;21.57;44.02
63006;BME280;53704;52.532;6.426;2022-07-15T10:01:14;102233.66;;;21.30;44.18
63006;BME280;53704;52.532;6.426;2022-07-15T10:03:40;102237.22;;;21.59;43.65
63006;BME280;53704;52.532;6.426;2022-07-15T10:06:07;102243.59;;;21.66;44.08
63006;BME280;53704;52.532;6.426;2022-07-15T10:08:34;102243.13;;;21.63;44.49
63006;BME280;53704;52.532;6.426;2022-07-15T10:11:00;102238.16;;;22.82;43.03
63006;BME280;53704;52.532;6.426;2022-07-15T10:13:43;102230.13;;;22.80;43.42
63006;BME280;53704;52.532;6.426;2022-07-15T10:20:12;102239.22;;;22.67;41.05
63006;BME280;53704;52.532;6.426;2022-07-15T10:22:24;102223.81;;;22.66;40.68
63006;BME280;53704;52.532;6.426;2022-07-15T10:30:06;102225.09;;;22.84;43.16
63006;BME280;53704;52.532;6.426;2022-07-15T10:38:24;102222.72;;;23.21;40.57
63006;BME280;53704;52.532;6.426;2022-07-15T10:41:09;102234.41;;;23.75;39.31
63006;BME280;53704;52.532;6.426;2022-07-15T10:48:44;102217.09;;;23.61;41.35
63006;BME280;53704;52.532;6.426;2022-07-15T10:51:11;102221.69;;;23.80;40.40
63006;BME280;53704;52.532;6.426;2022-07-15T10:53:44;102227.09;;;23.48;38.27
63006;BME280;53704;52.532;6.426;2022-07-15T10:56:25;102218.44;;;22.25;40.61
63006;BME280;53704;52.532;6.426;2022-07-15T11:01:45;102218.31;;;23.78;40.88
63006;BME280;53704;52.532;6.426;2022-07-15T11:14:55;102202.66;;;23.86;38.37
63006;BME280;53704;52.532;6.426;2022-07-15T11:17:42;102192.34;;;24.70;36.65
63006;BME280;53704;52.532;6.426;2022-07-15T11:20:14;102191.63;;;24.49;39.05
63006;BME280;53704;52.532;6.426;2022-07-15T11:22:45;102195.94;;;24.96;38.76
63006;BME280;53704;52.532;6.426;2022-07-15T11:25:30;102197.38;;;23.84;37.97
63006;BME280;53704;52.532;6.426;2022-07-15T11:27:58;102192.50;;;23.34;40.75
63006;BME280;53704;52.532;6.426;2022-07-15T11:30:30;102200.31;;;23.82;37.39
63006;BME280;53704;52.532;6.426;2022-07-15T11:32:59;102190.03;;;24.67;35.39
63006;BME280;53704;52.532;6.426;2022-07-15T11:35:26;102191.31;;;24.39;37.77
63006;BME280;53704;52.532;6.426;2022-07-15T11:38:03;102187.75;;;24.32;37.61
63006;BME280;53704;52.532;6.426;2022-07-15T11:40:30;102186.59;;;24.46;38.95
63006;BME280;53704;52.532;6.426;2022-07-15T11:43:18;102184.66;;;23.90;34.38
63006;BME280;53704;52.532;6.426;2022-07-15T11:46:04;102177.53;;;24.71;35.08
63006;BME280;53704;52.532;6.426;2022-07-15T11:48:37;102171.47;;;24.30;35.65
63006;BME280;53704;52.532;6.426;2022-07-15T11:51:05;102172.91;;;24.65;36.32
63006;BME280;53704;52.532;6.426;2022-07-15T11:53:39;102172.59;;;24.98;34.92
63006;BME280;53704;52.532;6.426;2022-07-15T11:56:05;102162.78;;;25.76;35.48
63006;BME280;53704;52.532;6.426;2022-07-15T11:58:52;102167.31;;;25.52;34.56
63006;BME280;53704;52.532;6.426;2022-07-15T12:01:21;102165.56;;;25.88;34.17
63006;BME280;53704;52.532;6.426;2022-07-15T12:03:50;102172.81;;;24.78;32.99
63006;BME280;53704;52.532;6.426;2022-07-15T12:06:18;102168.84;;;24.92;32.53
63006;BME280;53704;52.532;6.426;2022-07-15T12:08:55;102169.72;;;25.12;33.09
63006;BME280;53704;52.532;6.426;2022-07-15T12:11:23;102169.59;;;23.92;35.43
63006;BME280;53704;52.532;6.426;2022-07-15T12:13:55;102173.28;;;24.68;35.59
63006;BME280;53704;52.532;6.426;2022-07-15T12:16:35;102173.88;;;24.77;37.28
63006;BME280;53704;52.532;6.426;2022-07-15T12:19:04;102172.63;;;23.84;36.36
63006;BME280;53704;52.532;6.426;2022-07-15T12:21:30;102176.75;;;24.64;35.34
63006;BME280;53704;52.532;6.426;2022-07-15T12:24:11;102170.03;;;25.40;35.00
63006;BME280;53704;52.532;6.426;2022-07-15T12:26:40;102165.09;;;24.62;35.88
63006;BME280;53704;52.532;6.426;2022-07-15T12:29:09;102167.59;;;26.11;35.67
63006;BME280;53704;52.532;6.426;2022-07-15T12:31:36;102167.44;;;26.60;34.97
63006;BME280;53704;52.532;6.426;2022-07-15T12:34:03;102176.41;;;26.32;34.41
63006;BME280;53704;52.532;6.426;2022-07-15T12:36:31;102176.16;;;25.24;34.94
63006;BME280;53704;52.532;6.426;2022-07-15T12:39:16;102174.38;;;26.39;34.18
63006;BME280;53704;52.532;6.426;2022-07-15T12:41:45;102172.81;;;25.71;35.91
63006;BME280;53704;52.532;6.426;2022-07-15T12:44:11;102181.34;;;24.70;34.27
63006;BME280;53704;52.532;6.426;2022-07-15T12:49:36;102166.94;;;26.51;33.29
63006;BME280;53704;52.532;6.426;2022-07-15T12:52:35;102167.81;;;26.76;33.22
63006;BME280;53704;52.532;6.426;2022-07-15T12:57:38;102176.19;;;25.73;36.11
63006;BME280;53704;52.532;6.426;2022-07-15T13:00:13;102162.53;;;26.50;33.58
63006;BME280;53704;52.532;6.426;2022-07-15T13:05:43;102169.56;;;27.29;32.05
63006;BME280;53704;52.532;6.426;2022-07-15T13:08:12;102172.75;;;26.74;32.84
63006;BME280;53704;52.532;6.426;2022-07-15T13:10:38;102165.41;;;27.15;33.09
63006;BME280;53704;52.532;6.426;2022-07-15T13:13:06;102163.44;;;27.39;32.78
63006;BME280;53704;52.532;6.426;2022-07-15T13:15:32;102154.66;;;28.45;33.42
63006;BME280;53704;52.532;6.426;2022-07-15T13:17:57;102162.53;;;28.20;32.96
63006;BME280;53704;52.532;6.426;2022-07-15T13:20:23;102158.03;;;27.73;32.11
63006;BME280;53704;52.532;6.426;2022-07-15T13:22:49;102164.50;;;26.08;35.18
63006;BME280;53704;52.532;6.426;2022-07-15T13:25:14;102163.28;;;26.81;35.81
63006;BME280;53704;52.532;6.426;2022-07-15T13:27:40;102158.78;;;26.45;36.63
63006;BME280;53704;52.532;6.426;2022-07-15T13:30:07;102158.81;;;26.80;33.94
63006;BME280;53704;52.532;6.426;2022-07-15T13:32:33;102161.53;;;25.91;35.73
63006;BME280;53704;52.532;6.426;2022-07-15T13:34:59;102155.28;;;25.95;35.02
63006;BME280;53704;52.532;6.426;2022-07-15T13:37:25;102155.31;;;26.61;34.58
63006;BME280;53704;52.532;6.426;2022-07-15T13:39:50;102161.72;;;26.85;35.65
63006;BME280;53704;52.532;6.426;2022-07-15T13:42:16;102152.47;;;26.92;33.88